createdAt,value
2018-09-21T00:01:51.794Z,73.41
2018-09-21T00:04:20.608Z,73.26
2018-09-21T00:06:49.513Z,72.83
2018-09-21T00:09:18.219Z,72.48
2018-09-21T00:11:46.970Z,72.38
2018-09-21T00:14:15.643Z,72.24
2018-09-21T00:16:44.380Z,72.39
2018-09-21T00:19:13.195Z,72.46
2018-09-21T00:21:41.857Z,72.55
2018-09-21T00:24:10.471Z,72.36
2018-09-21T00:26:39.082Z,72.50
2018-09-21T00:29:07.673Z,73.36
2018-09-21T00:31:36.318Z,73.21
2018-09-21T00:34:04.958Z,73.21
2018-09-21T00:36:33.563Z,73.00
2018-09-21T00:39:02.171Z,73.27
2018-09-21T00:41:30.795Z,73.32
2018-09-21T00:43:59.394Z,73.31
2018-09-21T00:46:28.085Z,73.42
2018-09-21T00:48:56.674Z,73.41
2018-09-21T00:51:25.287Z,72.73
2018-09-21T00:53:53.883Z,72.63
2018-09-21T00:56:22.495Z,72.31
2018-09-21T00:58:51.155Z,72.24
2018-09-21T01:01:42.766Z,72.46
2018-09-21T01:04:11.371Z,72.56
2018-09-21T01:06:39.999Z,72.49
2018-09-21T01:09:10.482Z,72.24
2018-09-21T01:11:39.535Z,72.42
2018-09-21T01:14:17.925Z,71.95
2018-09-21T01:16:46.538Z,71.95
2018-09-21T01:19:15.151Z,71.74
2018-09-21T01:21:43.762Z,71.40
2018-09-21T01:24:12.360Z,71.19
2018-09-21T01:26:40.982Z,71.29
2018-09-21T01:29:09.637Z,71.41
2018-09-21T01:31:38.342Z,71.66
2018-09-21T01:34:06.990Z,71.70
2018-09-21T01:36:35.635Z,71.81
2018-09-21T01:39:05.190Z,71.51
2018-09-21T01:41:33.807Z,71.84
2018-09-21T01:44:02.418Z,72.17
2018-09-21T01:46:31.023Z,71.91
2018-09-21T01:48:59.665Z,71.92
2018-09-21T01:51:28.536Z,71.89
2018-09-21T01:53:57.117Z,72.17
2018-09-21T01:56:25.730Z,72.06
2018-09-21T01:58:54.330Z,72.30
2018-09-21T02:01:22.924Z,72.43
2018-09-21T02:03:51.568Z,72.67
2018-09-21T02:06:20.174Z,72.52
2018-09-21T02:08:48.792Z,72.70
2018-09-21T02:11:17.447Z,72.75
2018-09-21T02:13:46.077Z,72.53
2018-09-21T02:16:14.675Z,72.46
2018-09-21T02:18:43.312Z,71.97
2018-09-21T02:21:11.906Z,71.88
2018-09-21T02:23:40.520Z,72.19
2018-09-21T02:26:09.101Z,72.27
2018-09-21T02:28:37.723Z,72.27
2018-09-21T02:31:06.775Z,71.71
2018-09-21T02:33:35.417Z,71.70
2018-09-21T02:36:04.021Z,71.93
2018-09-21T02:38:32.643Z,71.80
2018-09-21T02:41:01.231Z,71.63
2018-09-21T02:43:29.831Z,71.66
2018-09-21T02:45:58.418Z,71.72
2018-09-21T02:48:27.031Z,71.76
2018-09-21T02:50:55.679Z,71.50
2018-09-21T02:53:24.287Z,71.56
2018-09-21T02:55:52.875Z,71.19
2018-09-21T02:58:21.489Z,71.00
2018-09-21T03:00:50.224Z,70.83
2018-09-21T03:03:18.753Z,71.26
2018-09-21T03:05:47.405Z,71.14
2018-09-21T03:08:16.015Z,71.19
2018-09-21T03:10:44.616Z,71.16
2018-09-21T03:13:13.273Z,70.85
2018-09-21T03:15:41.886Z,70.95
2018-09-21T03:18:10.500Z,71.10
2018-09-21T03:20:39.126Z,71.18
2018-09-21T03:23:07.739Z,71.43
2018-09-21T03:25:36.351Z,71.01
2018-09-21T03:28:04.970Z,71.14
2018-09-21T03:30:33.565Z,70.83
2018-09-21T03:33:02.202Z,71.25
2018-09-21T03:35:30.786Z,71.41
2018-09-21T03:37:59.462Z,70.88
2018-09-21T03:40:28.055Z,70.98
2018-09-21T03:42:56.666Z,71.42
2018-09-21T03:45:25.302Z,71.46
2018-09-21T03:47:53.912Z,71.73
2018-09-21T03:50:22.497Z,71.68
2018-09-21T03:52:51.124Z,71.55
2018-09-21T03:55:19.724Z,71.69
2018-09-21T03:57:48.329Z,71.43
2018-09-21T04:00:16.948Z,71.40
2018-09-21T04:02:45.574Z,71.33
2018-09-21T04:05:14.193Z,71.42
2018-09-21T04:07:42.778Z,71.52
2018-09-21T04:10:11.408Z,71.16
2018-09-21T04:12:39.999Z,71.16
2018-09-21T04:15:09.032Z,71.29
2018-09-21T04:17:37.646Z,71.36
2018-09-21T04:20:06.411Z,71.26
2018-09-21T04:22:35.009Z,71.55
2018-09-21T04:25:04.293Z,71.70
2018-09-21T04:27:32.928Z,71.86
2018-09-21T04:30:01.571Z,71.91
2018-09-21T04:32:30.189Z,72.20
2018-09-21T04:34:58.846Z,72.51
2018-09-21T04:37:27.435Z,72.54
2018-09-21T04:39:56.051Z,72.60
2018-09-21T04:42:24.648Z,72.79
2018-09-21T04:44:53.271Z,72.61
2018-09-21T04:47:21.857Z,72.24
2018-09-21T04:49:50.517Z,72.53
2018-09-21T04:52:19.151Z,72.49
2018-09-21T04:54:47.750Z,72.31
2018-09-21T04:57:16.436Z,72.76
2018-09-21T04:59:45.050Z,72.52
2018-09-21T05:02:13.698Z,72.85
2018-09-21T05:04:42.312Z,72.47
2018-09-21T05:07:10.906Z,72.54
2018-09-21T05:09:39.560Z,72.81
2018-09-21T05:12:08.152Z,72.71
2018-09-21T05:14:36.770Z,72.95
2018-09-21T05:17:05.388Z,72.93
2018-09-21T05:19:34.014Z,72.59
2018-09-21T05:22:02.623Z,72.92
2018-09-21T05:24:31.260Z,72.65
2018-09-21T05:26:59.875Z,72.56
2018-09-21T05:29:28.488Z,72.41
2018-09-21T05:31:57.103Z,72.32
2018-09-21T05:34:25.789Z,72.06
2018-09-21T05:36:54.371Z,71.85
2018-09-21T05:39:22.990Z,71.27
2018-09-21T05:41:51.592Z,70.65
2018-09-21T05:44:20.201Z,69.47
2018-09-21T05:46:48.812Z,68.11
2018-09-21T05:49:17.451Z,67.54
2018-09-21T05:51:46.070Z,68.39
2018-09-21T05:54:14.684Z,68.44
2018-09-21T05:56:44.257Z,68.70
2018-09-21T05:59:12.862Z,68.80
2018-09-21T06:01:41.458Z,68.53
2018-09-21T06:04:10.074Z,68.43
2018-09-21T06:06:38.732Z,68.91
2018-09-21T06:09:10.172Z,68.89
2018-09-21T06:11:38.833Z,69.40
2018-09-21T06:14:07.901Z,68.77
2018-09-21T06:16:36.552Z,68.86
2018-09-21T06:19:05.255Z,69.03
2018-09-21T06:21:34.025Z,68.52
2018-09-21T06:24:02.694Z,68.68
2018-09-21T06:26:31.324Z,68.31
2018-09-21T06:28:59.932Z,67.77
2018-09-21T06:31:28.577Z,67.77
2018-09-21T06:33:57.184Z,66.98
2018-09-21T06:36:25.805Z,66.88
2018-09-21T06:38:54.409Z,66.31
2018-09-21T06:41:23.092Z,66.12
2018-09-21T06:43:51.698Z,66.13
2018-09-21T06:46:20.328Z,65.52
2018-09-21T06:48:48.934Z,65.58
2018-09-21T06:51:17.558Z,65.74
2018-09-21T06:53:46.158Z,65.91
2018-09-21T06:56:14.823Z,64.55
2018-09-21T06:58:43.463Z,64.82
2018-09-21T07:01:12.094Z,63.44
2018-09-21T07:03:40.704Z,62.96
2018-09-21T07:06:09.379Z,63.02
2018-09-21T07:08:37.974Z,62.91
2018-09-21T07:11:06.608Z,62.50
2018-09-21T07:13:35.227Z,61.37
2018-09-21T07:16:03.846Z,60.81
2018-09-21T07:18:32.446Z,61.07
2018-09-21T07:21:01.072Z,59.27
2018-09-21T07:23:29.669Z,59.14
2018-09-21T07:25:58.276Z,58.95
2018-09-21T07:28:26.888Z,58.12
2018-09-21T07:30:55.578Z,57.56
2018-09-21T07:33:24.190Z,56.79
2018-09-21T07:35:52.827Z,56.67
2018-09-21T07:38:21.433Z,56.12
2018-09-21T07:40:50.048Z,55.56
2018-09-21T07:43:18.657Z,54.38
2018-09-21T07:45:47.291Z,54.34
2018-09-21T07:48:15.889Z,54.18
2018-09-21T07:50:44.488Z,53.93
2018-09-21T07:53:13.071Z,52.88
2018-09-21T07:55:41.683Z,52.00
2018-09-21T07:58:10.273Z,50.65
2018-09-21T08:00:38.890Z,49.73
2018-09-21T08:03:07.473Z,49.51
2018-09-21T08:05:36.273Z,47.68
2018-09-21T08:08:05.802Z,48.22
2018-09-21T08:10:34.402Z,48.50
2018-09-21T08:13:03.071Z,49.04
2018-09-21T08:15:32.230Z,48.82
2018-09-21T08:18:00.835Z,49.21
2018-09-21T08:20:29.454Z,49.56
2018-09-21T08:22:58.118Z,49.80
2018-09-21T08:25:26.722Z,49.02
2018-09-21T08:27:55.327Z,49.16
2018-09-21T08:30:23.922Z,49.41
2018-09-21T08:32:52.566Z,49.17
2018-09-21T08:35:21.149Z,49.17
2018-09-21T08:37:49.783Z,49.36
2018-09-21T08:40:18.412Z,49.32
2018-09-21T08:42:47.043Z,49.09
2018-09-21T08:45:15.658Z,49.81
2018-09-21T08:47:44.266Z,50.07
2018-09-21T08:50:12.871Z,49.60
2018-09-21T08:52:41.474Z,49.59
2018-09-21T08:55:10.051Z,49.72
2018-09-21T08:57:38.663Z,49.28
2018-09-21T09:00:07.279Z,49.02
2018-09-21T09:02:35.893Z,48.75
2018-09-21T09:05:04.599Z,49.67
2018-09-21T09:07:33.216Z,49.17
2018-09-21T09:10:01.811Z,48.95
2018-09-21T09:12:30.448Z,49.38
2018-09-21T09:14:59.046Z,48.74
2018-09-21T09:17:27.687Z,49.01
2018-09-21T09:19:56.279Z,49.10
2018-09-21T09:22:24.895Z,49.38
2018-09-21T09:24:55.063Z,49.68
2018-09-21T09:27:25.032Z,48.89
2018-09-21T09:29:56.912Z,49.13
2018-09-21T09:32:31.847Z,49.04
2018-09-21T09:35:06.142Z,48.73
2018-09-21T09:37:38.940Z,48.59
2018-09-21T09:40:10.939Z,48.17
2018-09-21T09:42:41.447Z,48.10
2018-09-21T09:45:12.083Z,47.31
2018-09-21T09:47:41.864Z,47.72
2018-09-21T09:50:16.128Z,46.96
2018-09-21T09:52:47.954Z,46.64
2018-09-21T09:55:18.918Z,46.15
2018-09-21T09:57:49.858Z,45.99
2018-09-21T10:00:27.280Z,45.43
2018-09-21T10:02:58.178Z,44.95
2018-09-21T10:05:27.691Z,45.49
2018-09-21T10:08:02.510Z,46.22
2018-09-21T10:10:32.174Z,45.42
2018-09-21T10:13:03.807Z,46.25
2018-09-21T10:15:33.517Z,46.65
2018-09-21T10:18:03.937Z,46.63
2018-09-21T10:20:35.398Z,46.64
2018-09-21T10:23:05.484Z,47.28
2018-09-21T10:25:36.851Z,47.70
2018-09-21T10:28:08.744Z,47.36
2018-09-21T10:30:43.921Z,47.77
2018-09-21T10:33:14.382Z,48.04
2018-09-21T10:35:44.944Z,48.02
2018-09-21T10:38:19.490Z,48.28
2018-09-21T10:40:48.900Z,48.59
2018-09-21T10:43:18.744Z,48.72
2018-09-21T10:45:48.967Z,48.37
2018-09-21T10:48:20.188Z,48.88
2018-09-21T10:50:51.190Z,48.20
2018-09-21T10:53:22.371Z,48.42
2018-09-21T10:55:52.555Z,48.39
2018-09-21T10:58:23.150Z,48.76
2018-09-21T11:00:55.827Z,49.05
2018-09-21T11:03:27.914Z,49.37
2018-09-21T11:05:58.153Z,49.37
2018-09-21T11:08:31.083Z,50.08
2018-09-21T11:11:02.612Z,49.90
2018-09-21T11:13:34.442Z,50.26
2018-09-21T11:16:04.297Z,50.39
2018-09-21T11:18:35.313Z,50.72
2018-09-21T11:21:05.259Z,50.10
2018-09-21T11:23:35.175Z,49.93
2018-09-21T11:26:05.736Z,49.76
2018-09-21T11:28:39.378Z,49.10
2018-09-21T11:31:10.022Z,48.84
2018-09-21T11:33:40.863Z,48.79
2018-09-21T11:36:14.608Z,49.07
2018-09-21T11:38:46.502Z,48.97
2018-09-21T11:41:20.136Z,48.23
2018-09-21T11:43:50.137Z,48.95
2018-09-21T11:46:21.559Z,49.34
2018-09-21T11:48:51.346Z,49.52
2018-09-21T11:51:22.402Z,50.26
2018-09-21T11:53:52.934Z,50.98
2018-09-21T11:56:23.621Z,51.21
2018-09-21T11:58:58.766Z,54.80
2018-09-21T12:01:28.886Z,63.25
2018-09-21T12:04:04.926Z,76.07
2018-09-21T12:06:35.146Z,85.03
2018-09-21T12:09:07.297Z,89.66
2018-09-21T12:11:37.818Z,92.91
2018-09-21T12:14:08.225Z,94.82
2018-09-21T12:16:38.723Z,96.34
2018-09-21T12:19:11.308Z,96.91
2018-09-21T12:21:47.196Z,97.93
2018-09-21T12:24:22.082Z,97.90
2018-09-21T12:26:54.720Z,97.99
2018-09-21T12:29:28.335Z,99.21
2018-09-21T12:32:00.532Z,99.13
2018-09-21T12:34:32.098Z,97.27
2018-09-21T12:37:09.461Z,97.04
2018-09-21T12:39:40.438Z,96.82
2018-09-21T12:42:13.823Z,97.15
2018-09-21T12:44:47.030Z,97.60
2018-09-21T12:47:23.271Z,97.52
2018-09-21T12:49:52.648Z,97.23
2018-09-21T12:52:24.338Z,97.36
2018-09-21T12:54:53.908Z,97.81
2018-09-21T12:57:28.223Z,97.64
2018-09-21T13:00:09.513Z,98.54
2018-09-21T13:05:47.043Z,97.88
2018-09-21T13:08:18.723Z,97.16
2018-09-21T13:10:48.502Z,98.12
2018-09-21T13:13:22.693Z,98.77
2018-09-21T13:16:02.479Z,98.24
2018-09-21T13:18:35.415Z,98.04
2018-09-21T13:21:06.170Z,97.00
2018-09-21T13:23:35.570Z,97.26
2018-09-21T13:26:06.148Z,97.56
2018-09-21T13:28:38.599Z,96.43
2018-09-21T13:34:08.264Z,96.50
2018-09-21T13:36:39.675Z,95.87
2018-09-21T13:39:14.841Z,96.25
2018-09-21T13:41:50.041Z,95.79
2018-09-21T13:44:22.376Z,96.07
2018-09-21T13:46:54.099Z,95.67
2018-09-21T13:49:23.629Z,95.56
2018-09-21T13:51:58.280Z,95.73
2018-09-21T13:54:34.382Z,95.98
2018-09-21T13:57:08.413Z,96.09
2018-09-21T13:59:36.996Z,96.24
2018-09-21T14:02:05.626Z,95.40
2018-09-21T14:04:34.221Z,95.98
2018-09-21T14:07:02.864Z,96.16
2018-09-21T14:09:31.513Z,96.27
2018-09-21T14:12:00.150Z,95.79
2018-09-21T14:14:28.747Z,96.08
2018-09-21T14:16:57.371Z,95.80
2018-09-21T14:19:26.015Z,95.33
2018-09-21T14:21:54.642Z,96.19
2018-09-21T14:24:23.291Z,96.66
2018-09-21T14:26:51.901Z,97.20
2018-09-21T14:29:20.535Z,96.41
2018-09-21T14:31:49.188Z,97.52
2018-09-21T14:34:17.797Z,97.60
2018-09-21T14:36:46.401Z,97.49
2018-09-21T14:39:14.985Z,97.92
2018-09-21T14:41:43.604Z,98.31
2018-09-21T14:44:12.263Z,98.25
2018-09-21T14:46:40.908Z,98.19
2018-09-21T14:49:09.526Z,98.20
2018-09-21T14:51:38.140Z,98.39
2018-09-21T14:54:06.743Z,98.63
2018-09-21T14:56:35.361Z,98.81
2018-09-21T14:59:04.017Z,99.36
2018-09-21T15:01:32.644Z,98.87
2018-09-21T15:04:01.245Z,98.42
2018-09-21T15:06:29.862Z,98.11
2018-09-21T15:08:58.462Z,97.87
2018-09-21T15:11:27.127Z,97.69
2018-09-21T15:13:55.946Z,97.96
2018-09-21T15:16:24.584Z,97.77
2018-09-21T15:18:53.179Z,98.07
2018-09-21T15:21:21.790Z,98.23
2018-09-21T15:23:50.370Z,97.81
2018-09-21T15:26:18.994Z,98.56
2018-09-21T15:28:47.690Z,98.05
2018-09-21T15:31:16.407Z,97.19
2018-09-21T15:33:44.992Z,97.08
2018-09-21T15:36:13.618Z,97.18
2018-09-21T15:38:42.220Z,97.39
2018-09-21T15:41:10.899Z,97.62
2018-09-21T15:43:39.531Z,97.54
2018-09-21T15:46:08.162Z,97.56
2018-09-21T15:48:36.751Z,97.54
2018-09-21T15:51:05.367Z,98.16
2018-09-21T15:53:33.968Z,97.92
2018-09-21T15:56:02.702Z,98.00
2018-09-21T15:58:31.330Z,98.01
2018-09-21T16:00:59.944Z,97.76
2018-09-21T16:03:28.578Z,97.52
2018-09-21T16:05:57.205Z,97.24
2018-09-21T16:08:25.813Z,97.29
2018-09-21T16:10:54.415Z,96.97
2018-09-21T16:13:53.792Z,97.06
2018-09-21T16:16:22.476Z,97.34
2018-09-21T16:18:51.122Z,97.51
2018-09-21T16:21:19.776Z,97.47
2018-09-21T16:23:48.409Z,97.83
2018-09-21T16:26:17.003Z,97.71
2018-09-21T16:28:45.651Z,97.86
2018-09-21T16:31:14.315Z,97.45
2018-09-21T16:33:42.932Z,97.44
2018-09-21T16:36:11.741Z,97.06
2018-09-21T16:38:40.403Z,97.18
2018-09-21T16:41:09.000Z,96.99
2018-09-21T16:43:37.626Z,97.05
2018-09-21T16:46:06.312Z,96.92
2018-09-21T16:48:34.937Z,96.63
2018-09-21T16:51:03.539Z,96.08
2018-09-21T16:53:32.159Z,95.97
2018-09-21T16:56:00.779Z,96.14
2018-09-21T16:58:29.399Z,96.07
2018-09-21T17:00:57.994Z,95.69
2018-09-21T17:03:26.637Z,95.30
2018-09-21T17:05:55.257Z,94.97
2018-09-21T17:08:23.877Z,93.88
2018-09-21T17:10:52.467Z,94.51
2018-09-21T17:13:21.114Z,93.84
2018-09-21T17:15:49.747Z,94.25
2018-09-21T17:18:18.391Z,93.34
2018-09-21T17:20:46.970Z,92.45
2018-09-21T17:23:15.584Z,93.41
2018-09-21T17:25:44.290Z,92.89
2018-09-21T17:28:14.128Z,93.72
2018-09-21T17:30:42.718Z,93.69
2018-09-21T17:33:11.341Z,93.38
2018-09-21T17:35:40.024Z,93.42
2018-09-21T17:38:08.680Z,93.20
2018-09-21T17:40:37.285Z,93.38
2018-09-21T17:43:06.290Z,93.25
2018-09-21T17:45:34.905Z,93.61
2018-09-21T17:48:03.546Z,93.85
2018-09-21T17:50:32.161Z,92.83
2018-09-21T17:53:00.753Z,92.78
2018-09-21T17:55:29.376Z,92.86
2018-09-21T17:57:57.976Z,93.18
2018-09-21T18:00:26.589Z,93.16
2018-09-21T18:02:55.189Z,92.97
2018-09-21T18:05:23.806Z,93.27
2018-09-21T18:07:52.407Z,92.99
2018-09-21T18:10:21.019Z,93.21
2018-09-21T18:12:49.610Z,93.57
2018-09-21T18:15:18.218Z,93.94
2018-09-21T18:17:46.822Z,94.14
2018-09-21T18:20:15.442Z,94.34
2018-09-21T18:22:44.174Z,94.55
2018-09-21T18:25:12.824Z,94.84
2018-09-21T18:27:41.420Z,95.44
2018-09-21T18:30:10.036Z,95.52
2018-09-21T18:32:38.749Z,95.27
2018-09-21T18:35:07.379Z,95.06
2018-09-21T18:37:35.961Z,95.14
2018-09-21T18:40:04.795Z,94.31
2018-09-21T18:42:33.411Z,94.62
2018-09-21T18:45:02.017Z,94.46
2018-09-21T18:47:30.642Z,94.48
2018-09-21T18:49:59.512Z,93.81
2018-09-21T18:52:28.097Z,93.64
2018-09-21T18:54:56.721Z,93.12
2018-09-21T18:57:25.331Z,92.88
2018-09-21T18:59:53.923Z,92.76
2018-09-21T19:02:22.534Z,92.11
2018-09-21T19:04:51.112Z,91.75
2018-09-21T19:07:25.046Z,91.21
2018-09-21T19:09:53.647Z,90.99
2018-09-21T19:12:22.269Z,91.05
2018-09-21T19:14:50.848Z,91.48
2018-09-21T19:17:19.462Z,90.93
2018-09-21T19:19:48.050Z,90.23
2018-09-21T19:22:16.678Z,90.71
2018-09-21T19:24:45.275Z,91.10
2018-09-21T19:27:13.884Z,89.64
2018-09-21T19:29:42.476Z,89.62
2018-09-21T19:32:11.186Z,88.54
2018-09-21T19:34:39.773Z,85.97
2018-09-21T19:37:08.378Z,86.44
2018-09-21T19:39:36.963Z,86.17
2018-09-21T19:42:05.574Z,85.97
2018-09-21T19:44:34.185Z,84.93
2018-09-21T19:47:02.784Z,84.01
2018-09-21T19:49:31.410Z,84.14
2018-09-21T19:52:00.005Z,84.00
2018-09-21T19:54:28.709Z,84.16
2018-09-21T19:56:57.249Z,83.99
2018-09-21T19:59:25.851Z,84.09
2018-09-21T20:01:54.451Z,82.67
2018-09-21T20:04:23.096Z,81.68
2018-09-21T20:06:51.699Z,82.13
2018-09-21T20:09:20.319Z,82.79
2018-09-21T20:11:48.925Z,82.68
2018-09-21T20:14:17.545Z,84.49
2018-09-21T20:16:46.158Z,83.94
2018-09-21T20:19:14.770Z,84.81
2018-09-21T20:21:43.354Z,84.68
2018-09-21T20:24:11.983Z,85.06
2018-09-21T20:26:40.586Z,83.24
2018-09-21T20:29:09.267Z,82.58
2018-09-21T20:31:43.079Z,80.68
2018-09-21T20:34:11.707Z,80.23
2018-09-21T20:36:40.303Z,77.95
2018-09-21T20:39:09.491Z,78.15
2018-09-21T20:41:38.116Z,77.68
2018-09-21T20:44:06.817Z,77.46
2018-09-21T20:46:35.420Z,78.21
2018-09-21T20:49:04.049Z,79.09
2018-09-21T20:51:32.660Z,77.49
2018-09-21T20:54:01.305Z,77.02
2018-09-21T20:56:29.903Z,75.99
2018-09-21T20:58:58.592Z,76.99
2018-09-21T21:01:27.216Z,77.08
2018-09-21T21:03:55.825Z,76.80
2018-09-21T21:06:24.415Z,77.25
2018-09-21T21:08:53.031Z,76.94
2018-09-21T21:11:21.690Z,77.28
2018-09-21T21:13:50.299Z,75.67
2018-09-21T21:16:19.001Z,75.66
2018-09-21T21:18:47.597Z,75.91
2018-09-21T21:21:16.232Z,75.97
2018-09-21T21:23:44.825Z,76.25
2018-09-21T21:26:13.450Z,75.39
2018-09-21T21:28:42.050Z,75.37
2018-09-21T21:31:10.701Z,77.04
2018-09-21T21:33:39.306Z,77.26
2018-09-21T21:36:08.234Z,77.21
2018-09-21T21:38:37.040Z,78.53
2018-09-21T21:41:05.661Z,77.78
2018-09-21T21:43:34.259Z,77.55
2018-09-21T21:46:03.044Z,77.40
2018-09-21T21:48:31.618Z,78.79
2018-09-21T21:51:00.256Z,78.56
2018-09-21T21:53:28.872Z,78.93
2018-09-21T21:55:57.491Z,79.03
2018-09-21T21:58:26.082Z,79.27
2018-09-21T22:01:00.059Z,79.42
2018-09-21T22:03:28.690Z,79.09
2018-09-21T22:05:57.314Z,79.81
2018-09-21T22:08:25.917Z,80.04
2018-09-21T22:10:54.582Z,80.35
2018-09-21T22:13:28.408Z,80.57
2018-09-21T22:15:57.010Z,80.98
2018-09-21T22:18:25.596Z,80.66
2018-09-21T22:20:54.215Z,80.71
2018-09-21T22:23:22.810Z,81.69
2018-09-21T22:25:51.415Z,81.57
2018-09-21T22:28:20.011Z,81.27
2018-09-21T22:30:48.800Z,82.20
2018-09-21T22:33:17.425Z,82.02
2018-09-21T22:35:46.045Z,82.63
2018-09-21T22:38:14.671Z,83.12
2018-09-21T22:40:43.402Z,83.04
2018-09-21T22:43:11.967Z,83.40
2018-09-21T22:45:40.566Z,83.21
2018-09-21T22:48:09.142Z,83.40
2018-09-21T22:50:37.755Z,83.20
2018-09-21T22:53:06.625Z,83.58
2018-09-21T22:55:35.223Z,83.98
2018-09-21T22:58:03.812Z,84.33
2018-09-21T23:00:32.449Z,84.41
2018-09-21T23:03:01.046Z,84.77
2018-09-21T23:05:29.649Z,84.64
2018-09-21T23:07:58.240Z,85.27
2018-09-21T23:10:26.845Z,84.93
2018-09-21T23:12:55.415Z,84.92
2018-09-21T23:15:24.025Z,85.08
2018-09-21T23:17:52.614Z,85.48
2018-09-21T23:20:21.231Z,85.50
2018-09-21T23:22:49.836Z,85.69
2018-09-21T23:25:18.428Z,85.58
2018-09-21T23:27:47.043Z,85.46
2018-09-21T23:30:15.634Z,85.94
2018-09-21T23:32:44.271Z,86.17
2018-09-21T23:35:12.878Z,86.07
2018-09-21T23:37:41.479Z,86.42
2018-09-21T23:40:10.076Z,86.77
2018-09-21T23:42:38.717Z,86.56
2018-09-21T23:45:07.490Z,86.94
2018-09-21T23:47:36.119Z,87.00
2018-09-21T23:50:04.739Z,86.75
2018-09-21T23:52:33.346Z,87.17
2018-09-21T23:55:01.962Z,87.04
2018-09-21T23:57:30.559Z,87.30
2018-09-21T23:59:59.159Z,87.42
